Flight Track Log - Related Links

Times and Time Zones

All times are in EDT time to prevent confusion due to time zone crossing. See the RPA3392 flight status page for this flight to view local times or setup timezone preferences in your user account.


Time Position Orientation Groundspeed Altitude Reporting Facility
EDT Latitude Longitude Course Direction KTS MPH feet Rate Location/Type
Fri 12:02:03 AM 38.9000 -77.0833 339° North 160 184 2,300  Level Potomac TRACON
Fri 12:04:00 AM 38.9967 -77.1914 319° Northwest 233 268 7,800 2,847 Climbing Washington Center
Fri 12:05:00 AM 39.0583 -77.2517 323° Northwest 264 304 10,700 2,650 Climbing Washington Center
Fri 12:06:00 AM 39.1281 -77.3200 323° Northwest 295 339 13,100 2,331 Climbing Washington Center
Fri 12:07:00 AM 39.0606 -77.1470 339° North  Level FlightAware Approximate
Fri 12:07:01 AM 39.2000 -77.4022 318° Northwest 327 376 15,400  Level Washington Center
Fri 12:08:01 AM 39.2781 -77.4819 322° Northwest 346 398 17,000 1,311 Climbing Washington Center
Fri 12:09:00 AM 39.3558 -77.5697 319° Northwest 359 413 18,000 1,815 Climbing Washington Center
Fri 12:10:00 AM 39.4356 -77.6553 320° Northwest 364 419 20,600 2,048 Climbing Washington Center
Fri 12:11:47 AM 39.5875 -77.8167 321° Northwest 383 441 23,700 1,689 Climbing Cleveland Center
Fri 12:12:47 AM 39.6753 -77.9156 319° Northwest 394 453 25,300 1,650 Climbing Cleveland Center
Fri 12:13:47 AM 39.7650 -78.0147 320° Northwest 415 478 27,000 1,650 Climbing Cleveland Center
Fri 12:14:47 AM 39.8550 -78.1194 318° Northwest 427 491 28,600 1,250 Climbing Cleveland Center
Fri 12:15:47 AM 39.9531 -78.2186 322° Northwest 435 501 29,500 832 Climbing Cleveland Center
Fri 12:17:40 AM 40.1514 -78.0550 32° Northeast 397 457 31,000 517 Climbing New York Center
Fri 12:18:41 AM 40.2436 -77.9125 50° Northeast 461 531 31,000  Level New York Center
Fri 12:19:40 AM 40.3217 -77.7925 50° Northeast 471 542 31,000  Level New York Center
Fri 12:20:40 AM 40.4044 -77.6617 50° Northeast 471 542 31,000  Level New York Center
Fri 12:21:40 AM 40.4914 -77.5258 50° Northeast 471 542 31,000  Level New York Center
Fri 12:22:40 AM 40.5825 -77.3872 49° Northeast 488 562 31,000  Level New York Center
Fri 12:23:41 AM 40.6717 -77.2478 50° Northeast 495 570 31,000  Level New York Center
Fri 12:24:38 AM 40.7628 -77.1031 50° Northeast 501 577 31,000  Level New York Center
Fri 12:25:40 AM 40.8467 -76.9736 49° Northeast 513 590 31,000  Level New York Center
Fri 12:26:41 AM 40.9514 -76.8044 51° Northeast 508 585 31,000  Level New York Center
Fri 12:27:40 AM 41.0419 -76.6639 49° Northeast 503 579 31,000  Level New York Center
Fri 12:28:41 AM 41.1300 -76.5200 51° Northeast 498 573 31,000  Level New York Center
Fri 12:29:39 AM 41.2139 -76.3808 51° Northeast 498 573 31,000  Level New York Center
Fri 12:30:39 AM 41.3083 -76.2314 50° Northeast 512 589 31,000  Level New York Center
Fri 12:31:40 AM 41.3983 -76.0839 51° Northeast 517 595 31,000 -250 Level New York Center
Fri 12:32:39 AM 41.4836 -75.9464 50° Northeast 510 587 30,500 -1,537 Descending New York Center
Fri 12:35:03 AM 41.6892 -75.6094 51° Northeast 487 560 25,800 -1,912 Descending Boston Center
Fri 12:36:03 AM 41.7653 -75.4853 51° Northeast 459 528 24,000 -900 Descending Boston Center
Fri 12:37:03 AM 41.8417 -75.3578 51° Northeast 438 504 24,000  Level Boston Center
Fri 12:38:03 AM 41.9158 -75.2303 52° Northeast 433 498 24,000  Level Boston Center
Fri 12:39:03 AM 41.9919 -75.1050 51° Northeast 433 498 24,000  Level Boston Center
Fri 12:40:03 AM 42.0569 -74.9958 51° Northeast 428 493 24,000  Level Boston Center
Fri 12:41:03 AM 42.1328 -74.8675 51° Northeast 423 487 24,000  Level Boston Center
Fri 12:42:03 AM 42.2061 -74.7469 51° Northeast 423 487 24,000 -850 Level Boston Center
Fri 12:43:03 AM 42.2814 -74.6206 51° Northeast 423 487 22,300 -2,157 Descending Boston Center
Fri 12:43:32 AM 42.3267 -74.5408 52° Northeast 424 488 20,800 -2,500 Descending Boston Center
Fri 12:44:03 AM 42.3506 -74.4967 54° Northeast 423 487 19,800 -2,597 Descending Boston Center
Fri 12:44:39 AM 42.4000 -74.4111 52° Northeast 406 467 17,900 -2,600 Descending Boston Center
Fri 12:45:03 AM 42.4194 -74.3750 54° Northeast 417 480 17,200 -2,300 Descending Boston Center
Fri 12:45:39 AM 42.4664 -74.2978 50° Northeast 387 445 15,600 -2,500 Descending Boston Center
Fri 12:46:03 AM 42.4922 -74.2478 55° Northeast 395 455 14,700 -2,262 Descending Boston Center
Fri 12:46:40 AM 42.5308 -74.1869 49° Northeast 369 425 13,300 -1,750 Descending Boston Center
Fri 12:47:15 AM 42.5500 -74.1508 54° Northeast 381 438 12,600 -2,200 Descending Boston Center
Fri 12:47:40 AM 42.5950 -74.0731 52° Northeast 353 406 11,100 -2,000 Descending Boston Center
Fri 12:48:15 AM 42.6206 -74.0314 50° Northeast 355 409 10,600 -1,869 Descending Boston Center
Fri 12:48:41 AM 42.6586 -73.9928 37° Northeast 308 354 9,200 -1,800 Descending Boston Center
Fri 12:49:15 AM 42.6753 -73.9878 12° North 333 383 8,800 -2,361 Descending Boston Center
Fri 12:49:42 AM 42.7381 -73.9808 North 287 330 6,800 -2,800 Descending Boston Center
Fri 12:50:15 AM 42.7717 -73.9617 23° Northeast 285 328 6,000 -1,556 Descending Boston Center
Fri 12:50:36 AM 42.8011 -73.9483 18° North 263 303 5,400 -1,700 Descending Boston Center
Fri 12:51:15 AM 42.8386 -73.9322 17° North 269 310 4,300 -1,672 Descending Boston Center
Fri 12:51:37 AM 42.8639 -73.9217 17° North 225 259 3,700 -1,500 Descending Boston Center
Fri 12:52:15 AM 42.8914 -73.8967 34° Northeast 222 255 2,800 -1,600 Descending Boston Center
Fri 12:52:37 AM 42.9083 -73.8658 53° Northeast 198 228 2,100 -800 Descending Boston Center
Fri 12:53:15 AM 42.8983 -73.8261 109° East 174 200 2,000 -98 Descending Boston Center
Fri 12:53:38 AM 42.8839 -73.8144 149° Southeast 169 194 2,000  Level Boston Center
Fri 12:54:15 AM 42.8675 -73.7942 138° Southeast 127 146 2,000 -197 Level Boston Center
Fri 12:54:39 AM 42.8381 -73.8133 206° Southwest 166 191 1,800 -714 Descending Boston Center
Fri 12:55:39 AM 42.7964 -73.8097 176° South 144 166 1,000 -800 Descending Boston Center

Login

Don't have an account? Register now (free) for customized features, flight alerts, and more!